Turner, Indiana
Current Conditions -  °F | °C
As of 2:53 AM on Wednesday 22 Oct 2014 (Local Time) from KHUF Reporting Station
Clear Clear  
Wind Chill: 37°   Ceiling: Unl
Heat Index: 40°   Visibility: 10mi
Dew Point: 37°   Wind: 5mph
Humidity: 89%   Direction: 20°NNE
Pressure: 30.23"   Gusts: NA
Location:  39.5158°N, 87.1262°W
Report Text: KHUF 220653Z 02004KT 10SM CLR 04/03 A3023 RMK AO2 SLP238 T00440028 $
Loading
Personal Weather Stations






























Interactive Weather Map
Tropical Storm Tracking
New forecast layout! Learn more

10-Day Weather Forecast

Advertisements
Track Severe Weather on mobile